createdAt,value
2019-02-10T00:00:43.342Z,100.00
2019-02-10T00:03:14.975Z,100.00
2019-02-10T00:05:46.550Z,100.00
2019-02-10T00:08:18.038Z,100.00
2019-02-10T00:10:49.561Z,100.00
2019-02-10T00:13:32.583Z,100.00
2019-02-10T00:16:12.281Z,100.00
2019-02-10T00:18:43.849Z,100.00
2019-02-10T00:21:16.661Z,100.00
2019-02-10T00:23:48.152Z,100.00
2019-02-10T00:26:19.713Z,100.00
2019-02-10T00:28:51.262Z,100.00
2019-02-10T00:31:24.127Z,100.00
2019-02-10T00:33:55.730Z,100.00
2019-02-10T00:36:32.944Z,100.00
2019-02-10T00:39:05.222Z,100.00
2019-02-10T00:41:36.832Z,100.00
2019-02-10T00:44:08.466Z,100.00
2019-02-10T00:46:40.026Z,100.00
2019-02-10T00:49:11.629Z,100.00
2019-02-10T00:51:43.208Z,100.00
2019-02-10T00:54:16.260Z,100.00
2019-02-10T00:56:47.714Z,100.00
2019-02-10T00:59:19.407Z,100.00
2019-02-10T01:01:51.030Z,100.00
2019-02-10T01:04:22.725Z,100.00
2019-02-10T01:06:54.595Z,100.00
2019-02-10T01:09:26.253Z,100.00
2019-02-10T01:11:57.697Z,100.00
2019-02-10T01:14:29.388Z,100.00
2019-02-10T01:17:01.045Z,100.00
2019-02-10T01:19:32.607Z,100.00
2019-02-10T01:22:04.177Z,100.00
2019-02-10T01:24:35.797Z,100.00
2019-02-10T01:27:07.495Z,100.00
2019-02-10T01:29:39.126Z,100.00
2019-02-10T01:32:10.843Z,100.00
2019-02-10T01:34:42.245Z,100.00
2019-02-10T01:37:13.817Z,100.00
2019-02-10T01:39:45.352Z,100.00
2019-02-10T01:42:17.045Z,100.00
2019-02-10T01:44:48.660Z,100.00
2019-02-10T01:47:20.279Z,100.00
2019-02-10T01:49:51.863Z,100.00
2019-02-10T01:52:23.641Z,100.00
2019-02-10T01:54:55.200Z,100.00
2019-02-10T01:57:26.741Z,100.00
2019-02-10T01:59:58.381Z,100.00
2019-02-10T02:02:29.952Z,100.00
2019-02-10T02:05:01.837Z,100.00
2019-02-10T02:07:33.444Z,100.00
2019-02-10T02:10:05.342Z,100.00
2019-02-10T02:12:36.943Z,100.00
2019-02-10T02:15:10.975Z,100.00
2019-02-10T02:17:42.483Z,100.00
2019-02-10T02:20:14.385Z,100.00
2019-02-10T02:22:45.983Z,100.00
2019-02-10T02:25:17.582Z,100.00
2019-02-10T02:27:49.255Z,100.00
2019-02-10T02:30:20.793Z,100.00
2019-02-10T02:32:52.426Z,100.00
2019-02-10T02:35:23.955Z,100.00
2019-02-10T02:37:55.540Z,100.00
2019-02-10T02:40:27.063Z,100.00
2019-02-10T02:42:58.717Z,100.00
2019-02-10T02:45:30.225Z,100.00
2019-02-10T02:48:01.915Z,100.00
2019-02-10T02:50:33.463Z,100.00
2019-02-10T02:53:05.132Z,100.00
2019-02-10T02:55:36.643Z,100.00
2019-02-10T02:58:08.258Z,100.00
2019-02-10T03:00:39.854Z,100.00
2019-02-10T03:03:11.338Z,100.00
2019-02-10T03:05:44.036Z,100.00
2019-02-10T03:08:15.572Z,100.00
2019-02-10T03:10:47.155Z,100.00
2019-02-10T03:13:18.709Z,100.00
2019-02-10T03:15:50.597Z,100.00
2019-02-10T03:18:22.184Z,100.00
2019-02-10T03:20:53.780Z,100.00
2019-02-10T03:23:25.245Z,100.00
2019-02-10T03:25:56.702Z,100.00
2019-02-10T03:28:28.126Z,100.00
2019-02-10T03:30:59.745Z,100.00
2019-02-10T03:33:31.251Z,100.00
2019-02-10T03:36:02.891Z,100.00
2019-02-10T03:38:34.434Z,100.00
2019-02-10T03:41:06.102Z,100.00
2019-02-10T03:43:37.619Z,100.00
2019-02-10T03:46:09.111Z,100.00
2019-02-10T03:48:40.624Z,100.00
2019-02-10T03:51:12.208Z,100.00
2019-02-10T03:53:43.947Z,100.00
2019-02-10T03:56:15.583Z,100.00
2019-02-10T03:58:50.084Z,100.00
2019-02-10T04:01:22.285Z,100.00
2019-02-10T04:03:53.954Z,100.00
2019-02-10T04:06:25.606Z,100.00
2019-02-10T04:08:59.878Z,100.00
2019-02-10T04:11:31.519Z,100.00
2019-02-10T04:14:03.212Z,100.00
2019-02-10T04:16:34.832Z,100.00
2019-02-10T04:19:06.493Z,100.00
2019-02-10T04:21:38.216Z,100.00
2019-02-10T04:24:09.807Z,100.00
2019-02-10T04:26:41.375Z,100.00
2019-02-10T04:29:12.953Z,100.00
2019-02-10T04:31:44.563Z,100.00
2019-02-10T04:34:16.173Z,100.00
2019-02-10T04:36:49.133Z,100.00
2019-02-10T04:39:20.790Z,100.00
2019-02-10T04:41:52.290Z,100.00
2019-02-10T04:44:23.938Z,100.00
2019-02-10T04:46:55.432Z,100.00
2019-02-10T04:49:27.099Z,100.00
2019-02-10T04:51:58.746Z,100.00
2019-02-10T04:54:30.359Z,100.00
2019-02-10T04:57:02.039Z,100.00
2019-02-10T04:59:34.188Z,100.00
2019-02-10T05:02:05.839Z,100.00
2019-02-10T05:04:37.500Z,100.00
2019-02-10T05:07:09.033Z,100.00
2019-02-10T05:09:40.625Z,100.00
2019-02-10T05:12:12.134Z,100.00
2019-02-10T05:14:43.836Z,100.00
2019-02-10T05:17:15.382Z,100.00
2019-02-10T05:19:47.060Z,100.00
2019-02-10T05:22:18.526Z,100.00
2019-02-10T05:24:50.094Z,100.00
2019-02-10T05:27:22.966Z,100.00
2019-02-10T05:29:56.887Z,100.00
2019-02-10T05:32:28.470Z,100.00
2019-02-10T05:35:00.170Z,100.00
2019-02-10T05:37:31.824Z,100.00
2019-02-10T05:40:03.404Z,100.00
2019-02-10T05:42:34.973Z,100.00
2019-02-10T05:45:06.682Z,100.00
2019-02-10T05:47:38.262Z,100.00
2019-02-10T05:50:09.788Z,100.00
2019-02-10T05:52:41.334Z,100.00
2019-02-10T05:55:12.952Z,100.00
2019-02-10T05:57:44.455Z,100.00
2019-02-10T06:00:16.566Z,100.00
2019-02-10T06:02:48.152Z,100.00
2019-02-10T06:05:22.492Z,100.00
2019-02-10T06:07:54.075Z,100.00
2019-02-10T06:10:25.597Z,100.00
2019-02-10T06:12:57.132Z,100.00
2019-02-10T06:15:28.709Z,100.00
2019-02-10T06:18:00.359Z,100.00
2019-02-10T06:20:31.966Z,100.00
2019-02-10T06:23:05.763Z,100.00
2019-02-10T06:25:37.237Z,100.00
2019-02-10T06:28:08.883Z,100.00
2019-02-10T06:30:40.395Z,100.00
2019-02-10T06:33:11.885Z,100.00
2019-02-10T06:35:43.562Z,100.00
2019-02-10T06:38:22.094Z,100.00
2019-02-10T06:40:48.465Z,100.00
2019-02-10T06:43:23.292Z,100.00
2019-02-10T06:45:55.045Z,100.00
2019-02-10T06:48:28.477Z,100.00
2019-02-10T06:51:00.028Z,100.00
2019-02-10T06:53:34.754Z,100.00
2019-02-10T06:56:07.636Z,100.00
2019-02-10T06:58:39.197Z,100.00
2019-02-10T07:01:16.608Z,100.00
2019-02-10T07:03:56.551Z,100.00
2019-02-10T07:06:28.193Z,100.00
2019-02-10T07:09:01.487Z,100.00
2019-02-10T07:11:34.125Z,100.00
2019-02-10T07:14:07.187Z,100.00
2019-02-10T07:16:58.188Z,100.00
2019-02-10T07:20:12.114Z,100.00
2019-02-10T07:23:21.221Z,100.00
2019-02-10T07:25:57.468Z,100.00
2019-02-10T07:28:51.188Z,100.00
2019-02-10T07:31:37.070Z,100.00
2019-02-10T07:34:48.041Z,100.00
2019-02-10T07:37:45.347Z,100.00
2019-02-10T07:41:05.159Z,100.00
2019-02-10T07:44:08.819Z,100.00
2019-02-10T07:47:26.697Z,100.00
2019-02-10T07:50:50.797Z,100.00
2019-02-10T07:53:52.835Z,100.00
2019-02-10T07:57:05.082Z,100.00
2019-02-10T08:00:03.429Z,100.00
2019-02-10T08:03:19.233Z,100.00
2019-02-10T08:06:27.762Z,100.00
2019-02-10T08:09:32.833Z,100.00
2019-02-10T08:13:09.072Z,100.00
2019-02-10T08:16:05.682Z,100.00
2019-02-10T08:19:06.843Z,100.00
2019-02-10T08:22:34.173Z,100.00
2019-02-10T08:25:59.212Z,100.00
2019-02-10T08:28:50.135Z,100.00
2019-02-10T08:31:51.206Z,100.00
2019-02-10T08:34:37.172Z,100.00
2019-02-10T08:37:42.982Z,100.00
2019-02-10T08:40:38.185Z,100.00
2019-02-10T08:44:01.712Z,100.00
2019-02-10T08:47:09.487Z,100.00
2019-02-10T08:50:24.508Z,100.00
2019-02-10T08:53:00.559Z,100.00
2019-02-10T08:55:33.602Z,100.00
2019-02-10T08:58:05.158Z,99.57
2019-02-10T09:00:36.827Z,99.94
2019-02-10T09:03:08.456Z,99.90
2019-02-10T09:05:40.073Z,100.00
2019-02-10T09:08:11.702Z,97.85
2019-02-10T09:10:45.294Z,98.21
2019-02-10T09:13:16.935Z,98.34
2019-02-10T09:15:48.467Z,94.17
2019-02-10T09:18:22.703Z,91.16
2019-02-10T09:20:54.567Z,90.48
2019-02-10T09:23:26.075Z,90.24
2019-02-10T09:25:57.648Z,86.56
2019-02-10T09:28:29.293Z,87.17
2019-02-10T09:31:02.007Z,85.02
2019-02-10T09:33:35.057Z,84.54
2019-02-10T09:36:06.951Z,85.08
2019-02-10T09:38:38.978Z,88.02
2019-02-10T09:41:10.717Z,83.68
2019-02-10T09:43:43.898Z,80.63
2019-02-10T09:46:15.514Z,88.04
2019-02-10T09:48:47.148Z,83.31
2019-02-10T09:51:18.758Z,86.28
2019-02-10T09:53:50.445Z,82.08
2019-02-10T09:56:25.048Z,82.30
2019-02-10T09:58:56.682Z,84.34
2019-02-10T10:01:28.184Z,82.44
2019-02-10T10:03:59.807Z,80.83
2019-02-10T10:06:31.505Z,79.96
2019-02-10T10:09:05.554Z,81.86
2019-02-10T10:11:37.044Z,78.58
2019-02-10T10:14:08.501Z,79.99
2019-02-10T10:16:40.056Z,78.55
2019-02-10T10:19:11.556Z,77.13
2019-02-10T10:21:43.284Z,78.58
2019-02-10T10:24:14.775Z,78.87
2019-02-10T10:26:46.325Z,78.26
2019-02-10T10:29:17.796Z,78.36
2019-02-10T10:31:49.436Z,78.45
2019-02-10T10:34:20.902Z,74.86
2019-02-10T10:36:52.491Z,74.61
2019-02-10T10:39:27.380Z,75.54
2019-02-10T10:41:57.240Z,75.28
2019-02-10T10:44:29.976Z,73.47
2019-02-10T10:47:01.505Z,70.36
2019-02-10T10:49:33.086Z,66.50
2019-02-10T10:52:04.849Z,65.34
2019-02-10T10:57:06.987Z,64.87
2019-02-10T10:59:40.832Z,64.87
2019-02-10T11:02:12.436Z,66.83
2019-02-10T11:04:44.032Z,65.64
2019-02-10T11:07:15.522Z,65.38
2019-02-10T11:09:47.066Z,66.16
2019-02-10T11:12:18.669Z,64.12
2019-02-10T11:14:50.169Z,61.29
2019-02-10T11:17:21.825Z,61.69
2019-02-10T11:19:53.375Z,60.97
2019-02-10T11:22:25.028Z,61.52
2019-02-10T11:24:56.435Z,60.78
2019-02-10T11:27:28.078Z,58.91
2019-02-10T11:29:59.550Z,58.91
2019-02-10T11:32:36.906Z,62.10
2019-02-10T11:35:08.664Z,59.94
2019-02-10T11:37:40.216Z,60.87
2019-02-10T11:40:12.145Z,59.10
2019-02-10T11:42:43.744Z,59.10
2019-02-10T11:45:15.276Z,58.78
2019-02-10T11:47:46.775Z,57.59
2019-02-10T11:50:18.252Z,59.91
2019-02-10T11:52:49.764Z,58.34
2019-02-10T11:55:21.265Z,60.61
2019-02-10T11:57:52.766Z,64.10
2019-02-10T12:00:25.446Z,63.24
2019-02-10T12:02:56.909Z,63.38
2019-02-10T12:05:28.437Z,63.54
2019-02-10T12:08:00.106Z,67.14
2019-02-10T12:10:31.784Z,64.24
2019-02-10T12:13:03.215Z,64.91
2019-02-10T12:15:35.092Z,64.61
2019-02-10T12:18:06.628Z,65.08
2019-02-10T12:20:38.268Z,65.45
2019-02-10T12:23:09.947Z,65.49
2019-02-10T12:25:41.685Z,67.06
2019-02-10T12:28:13.253Z,67.77
2019-02-10T12:30:44.914Z,68.95
2019-02-10T12:33:16.322Z,67.80
2019-02-10T12:35:47.861Z,69.10
2019-02-10T12:38:19.512Z,69.48
2019-02-10T12:40:51.234Z,70.03
2019-02-10T12:43:22.827Z,70.50
2019-02-10T12:45:54.477Z,70.05
2019-02-10T12:48:26.087Z,70.52
2019-02-10T12:50:57.715Z,69.39
2019-02-10T12:53:29.417Z,70.25
2019-02-10T12:56:01.106Z,68.61
2019-02-10T12:58:32.678Z,69.85
2019-02-10T13:01:05.296Z,69.66
2019-02-10T13:03:36.984Z,71.17
2019-02-10T13:06:08.458Z,72.55
2019-02-10T13:08:40.134Z,75.42
2019-02-10T13:11:11.576Z,76.57
2019-02-10T13:13:43.154Z,75.32
2019-02-10T13:16:17.597Z,76.50
2019-02-10T13:18:49.200Z,83.87
2019-02-10T13:21:20.650Z,86.45
2019-02-10T13:23:52.417Z,87.04
2019-02-10T13:26:23.842Z,88.23
2019-02-10T13:28:55.522Z,91.40
2019-02-10T13:31:26.952Z,94.95
2019-02-10T13:33:58.617Z,96.23
2019-02-10T13:36:30.227Z,97.38
2019-02-10T13:39:01.819Z,98.79
2019-02-10T13:41:37.833Z,100.00
2019-02-10T13:44:09.486Z,100.00
2019-02-10T13:46:41.102Z,100.00
2019-02-10T13:49:12.571Z,100.00
2019-02-10T13:51:44.207Z,100.00
2019-02-10T13:54:17.132Z,100.00
2019-02-10T13:56:48.706Z,100.00
2019-02-10T13:59:20.319Z,100.00
2019-02-10T14:01:51.816Z,100.00
2019-02-10T14:04:23.451Z,100.00
2019-02-10T14:06:54.846Z,100.00
2019-02-10T14:09:26.483Z,100.00
2019-02-10T14:11:57.968Z,100.00
2019-02-10T14:14:29.586Z,100.00
2019-02-10T14:17:01.923Z,100.00
2019-02-10T14:19:34.066Z,100.00
2019-02-10T14:22:05.700Z,100.00
2019-02-10T14:24:37.365Z,100.00
2019-02-10T14:27:08.909Z,100.00
2019-02-10T14:29:43.628Z,100.00
2019-02-10T14:32:15.135Z,100.00
2019-02-10T14:34:46.788Z,100.00
2019-02-10T14:37:18.558Z,100.00
2019-02-10T14:39:50.278Z,100.00
2019-02-10T14:42:21.794Z,100.00
2019-02-10T14:44:53.277Z,100.00
2019-02-10T14:47:24.781Z,100.00
2019-02-10T14:49:56.388Z,100.00
2019-02-10T14:52:30.982Z,100.00
2019-02-10T14:55:02.466Z,100.00
2019-02-10T14:57:34.003Z,100.00
2019-02-10T15:00:06.294Z,100.00
2019-02-10T15:02:38.904Z,100.00
2019-02-10T15:05:10.579Z,100.00
2019-02-10T15:07:42.207Z,100.00
2019-02-10T15:10:14.750Z,100.00
2019-02-10T15:12:46.467Z,100.00
2019-02-10T15:15:18.143Z,100.00
2019-02-10T15:17:50.007Z,100.00
2019-02-10T15:20:21.497Z,100.00
2019-02-10T15:22:53.035Z,100.00
2019-02-10T15:25:24.781Z,100.00
2019-02-10T15:27:56.964Z,100.00
2019-02-10T15:30:28.519Z,100.00
2019-02-10T15:33:00.006Z,100.00
2019-02-10T15:35:31.618Z,100.00
2019-02-10T15:38:03.178Z,100.00
2019-02-10T15:40:34.633Z,100.00
2019-02-10T15:43:06.187Z,100.00
2019-02-10T15:45:37.708Z,100.00
2019-02-10T15:48:09.574Z,100.00
2019-02-10T15:50:41.465Z,100.00
2019-02-10T15:53:13.104Z,100.00
2019-02-10T15:55:44.708Z,100.00
2019-02-10T15:58:16.195Z,100.00
2019-02-10T16:00:47.858Z,100.00
2019-02-10T16:03:19.559Z,100.00
2019-02-10T16:05:51.278Z,100.00
2019-02-10T16:08:22.863Z,100.00
2019-02-10T16:10:58.203Z,100.00
2019-02-10T16:13:27.687Z,100.00
2019-02-10T16:15:59.108Z,100.00
2019-02-10T16:18:30.704Z,100.00
2019-02-10T16:21:02.181Z,100.00
2019-02-10T16:23:33.768Z,100.00
2019-02-10T16:26:05.265Z,100.00
2019-02-10T16:28:36.874Z,100.00
2019-02-10T16:31:08.499Z,100.00
2019-02-10T16:33:40.085Z,100.00
2019-02-10T16:36:11.571Z,100.00
2019-02-10T16:38:43.328Z,100.00
2019-02-10T16:41:14.892Z,100.00
2019-02-10T16:43:46.435Z,100.00
2019-02-10T16:46:17.857Z,100.00
2019-02-10T16:48:50.725Z,100.00
2019-02-10T16:51:22.364Z,100.00
2019-02-10T16:53:55.959Z,100.00
2019-02-10T16:56:27.206Z,100.00
2019-02-10T16:58:58.872Z,100.00
2019-02-10T17:01:30.393Z,100.00
2019-02-10T17:04:01.957Z,100.00
2019-02-10T17:06:33.509Z,100.00
2019-02-10T17:09:05.876Z,100.00
2019-02-10T17:11:38.458Z,100.00
2019-02-10T17:14:10.013Z,100.00
2019-02-10T17:16:41.644Z,100.00
2019-02-10T17:19:13.231Z,100.00
2019-02-10T17:21:44.628Z,100.00
2019-02-10T17:24:16.199Z,100.00
2019-02-10T17:26:47.739Z,100.00
2019-02-10T17:29:20.955Z,100.00
2019-02-10T17:31:52.483Z,100.00
2019-02-10T17:34:24.061Z,100.00
2019-02-10T17:36:57.036Z,100.00
2019-02-10T17:39:28.600Z,100.00
2019-02-10T17:42:00.197Z,100.00
2019-02-10T17:44:31.847Z,100.00
2019-02-10T17:47:03.436Z,100.00
2019-02-10T17:49:34.864Z,100.00
2019-02-10T17:52:06.318Z,100.00
2019-02-10T17:54:37.884Z,100.00
2019-02-10T17:57:09.348Z,100.00
2019-02-10T17:59:40.907Z,100.00
2019-02-10T18:02:14.962Z,100.00
2019-02-10T18:04:46.581Z,100.00
2019-02-10T18:07:18.193Z,100.00
2019-02-10T18:09:49.816Z,100.00
2019-02-10T18:12:22.698Z,100.00
2019-02-10T18:15:06.694Z,100.00
2019-02-10T18:18:03.157Z,100.00
2019-02-10T18:20:39.391Z,100.00
2019-02-10T18:23:32.556Z,100.00
2019-02-10T18:26:22.788Z,100.00
2019-02-10T18:29:19.299Z,100.00
2019-02-10T18:32:01.736Z,100.00
2019-02-10T18:34:54.967Z,100.00
2019-02-10T18:37:45.206Z,100.00
2019-02-10T18:40:38.299Z,100.00
2019-02-10T18:43:29.141Z,100.00
2019-02-10T18:46:07.096Z,100.00
2019-02-10T18:49:00.438Z,100.00
2019-02-10T18:51:49.437Z,100.00
2019-02-10T18:54:39.649Z,100.00
2019-02-10T18:57:28.600Z,100.00
2019-02-10T19:00:30.820Z,100.00
2019-02-10T19:03:21.195Z,100.00
2019-02-10T19:06:01.748Z,100.00
2019-02-10T19:08:55.135Z,100.00
2019-02-10T19:11:36.103Z,100.00
2019-02-10T19:14:35.562Z,100.00
2019-02-10T19:17:13.240Z,100.00
2019-02-10T19:19:56.118Z,100.00
2019-02-10T19:22:45.997Z,100.00
2019-02-10T19:25:36.155Z,100.00
2019-02-10T19:28:29.514Z,100.00
2019-02-10T19:31:29.929Z,100.00
2019-02-10T19:34:32.415Z,100.00
2019-02-10T19:37:22.759Z,100.00
2019-02-10T19:40:03.627Z,100.00
2019-02-10T19:42:44.867Z,100.00
2019-02-10T19:45:51.859Z,100.00
2019-02-10T19:48:58.309Z,100.00
2019-02-10T19:51:52.514Z,100.00
2019-02-10T19:54:41.347Z,100.00
2019-02-10T19:57:49.814Z,100.00
2019-02-10T20:00:39.588Z,100.00
2019-02-10T20:03:22.770Z,100.00
2019-02-10T20:06:15.858Z,100.00
2019-02-10T20:09:18.387Z,100.00
2019-02-10T20:12:14.487Z,100.00
2019-02-10T20:14:59.630Z,100.00
2019-02-10T20:17:50.135Z,100.00
2019-02-10T20:20:36.618Z,100.00
2019-02-10T20:23:32.595Z,100.00
2019-02-10T20:26:22.788Z,100.00
2019-02-10T20:29:16.088Z,100.00
2019-02-10T20:32:06.260Z,100.00
2019-02-10T20:35:02.775Z,100.00
2019-02-10T20:37:51.695Z,100.00
2019-02-10T20:40:40.595Z,100.00
2019-02-10T20:43:32.665Z,100.00
2019-02-10T20:46:21.539Z,100.00
2019-02-10T20:49:16.528Z,100.00
2019-02-10T20:52:21.958Z,100.00
2019-02-10T20:55:02.718Z,100.00
2019-02-10T20:57:55.842Z,100.00
2019-02-10T21:00:44.990Z,100.00
2019-02-10T21:03:35.328Z,100.00
2019-02-10T21:06:24.145Z,100.00
2019-02-10T21:09:13.236Z,100.00
2019-02-10T21:12:20.378Z,100.00
2019-02-10T21:15:22.343Z,100.00
2019-02-10T21:18:20.797Z,100.00
2019-02-10T21:21:20.175Z,100.00
2019-02-10T21:24:28.467Z,100.00
2019-02-10T21:27:29.408Z,100.00
2019-02-10T21:30:22.613Z,100.00
2019-02-10T21:33:11.173Z,100.00
2019-02-10T21:36:10.868Z,100.00
2019-02-10T21:38:51.774Z,100.00
2019-02-10T21:41:41.646Z,100.00
2019-02-10T21:44:25.086Z,100.00
2019-02-10T21:47:01.605Z,100.00
2019-02-10T21:49:33.268Z,100.00
2019-02-10T21:52:04.773Z,100.00
2019-02-10T21:54:36.279Z,100.00
2019-02-10T21:57:07.858Z,100.00
2019-02-10T21:59:39.444Z,100.00
2019-02-10T22:02:12.421Z,100.00
2019-02-10T22:04:44.025Z,100.00
2019-02-10T22:07:17.748Z,100.00
2019-02-10T22:09:49.300Z,100.00
2019-02-10T22:12:20.759Z,100.00
2019-02-10T22:14:52.264Z,100.00
2019-02-10T22:17:23.830Z,100.00
2019-02-10T22:19:55.271Z,100.00
2019-02-10T22:22:26.849Z,100.00
2019-02-10T22:24:58.383Z,100.00
2019-02-10T22:27:29.841Z,100.00
2019-02-10T22:30:01.356Z,100.00
2019-02-10T22:32:32.868Z,100.00
2019-02-10T22:35:05.432Z,100.00
2019-02-10T22:37:37.024Z,100.00
2019-02-10T22:40:09.066Z,100.00
2019-02-10T22:42:45.784Z,100.00
2019-02-10T22:45:14.031Z,100.00
2019-02-10T22:47:45.499Z,100.00
2019-02-10T22:50:17.044Z,100.00
2019-02-10T22:52:49.628Z,100.00
2019-02-10T22:55:21.110Z,100.00
2019-02-10T22:57:59.570Z,100.00
2019-02-10T23:00:55.702Z,100.00
2019-02-10T23:03:27.342Z,100.00
2019-02-10T23:05:58.998Z,100.00
2019-02-10T23:08:30.610Z,100.00
2019-02-10T23:11:02.238Z,100.00
2019-02-10T23:13:33.841Z,100.00
2019-02-10T23:16:05.377Z,100.00
2019-02-10T23:18:37.131Z,100.00
2019-02-10T23:21:08.771Z,100.00
2019-02-10T23:23:40.359Z,100.00
2019-02-10T23:26:11.800Z,100.00
2019-02-10T23:28:43.367Z,100.00
2019-02-10T23:31:14.848Z,100.00
2019-02-10T23:33:46.299Z,100.00
2019-02-10T23:36:17.730Z,100.00
2019-02-10T23:38:49.307Z,100.00
2019-02-10T23:41:22.358Z,100.00
2019-02-10T23:43:53.970Z,100.00
2019-02-10T23:46:25.487Z,100.00
2019-02-10T23:48:57.145Z,100.00
2019-02-10T23:51:28.637Z,100.00
2019-02-10T23:54:01.245Z,100.00
2019-02-10T23:56:32.787Z,100.00
2019-02-10T23:59:04.329Z,100.00
